createdAt,value
2022-11-25T00:01:38.964Z,2.23
2022-11-25T00:04:24.141Z,2.37
2022-11-25T00:07:09.461Z,2.03
2022-11-25T00:09:54.706Z,2.33
2022-11-25T00:12:40.065Z,2.00
2022-11-25T00:15:25.464Z,2.00
2022-11-25T00:18:10.739Z,2.40
2022-11-25T00:20:56.048Z,2.37
2022-11-25T00:23:41.385Z,2.00
2022-11-25T00:26:28.939Z,2.07
2022-11-25T00:29:14.516Z,2.10
2022-11-25T00:32:00.322Z,2.30
2022-11-25T00:34:45.606Z,2.10
2022-11-25T00:37:32.352Z,2.10
2022-11-25T00:40:17.725Z,2.10
2022-11-25T00:43:22.188Z,2.10
2022-11-25T00:46:07.596Z,1.83
2022-11-25T00:48:52.899Z,1.80
2022-11-25T00:51:38.505Z,1.80
2022-11-25T00:54:23.904Z,2.20
2022-11-25T00:57:09.148Z,1.90
2022-11-25T00:59:54.427Z,1.80
2022-11-25T01:02:39.853Z,1.77
2022-11-25T01:05:25.474Z,2.20
2022-11-25T01:08:12.330Z,1.80
2022-11-25T01:11:05.746Z,2.10
2022-11-25T01:13:59.343Z,1.98
2022-11-25T01:16:46.478Z,2.10
2022-11-25T01:19:31.823Z,1.90
2022-11-25T01:22:17.991Z,2.03
2022-11-25T01:25:03.294Z,1.80
2022-11-25T01:27:48.403Z,2.10
2022-11-25T01:30:38.288Z,1.87
2022-11-25T01:33:26.377Z,1.80
2022-11-25T01:36:14.195Z,1.80
2022-11-25T01:39:01.451Z,1.93
2022-11-25T01:41:47.168Z,1.77
2022-11-25T01:44:33.170Z,1.67
2022-11-25T01:47:23.530Z,1.70
2022-11-25T01:50:12.707Z,1.67
2022-11-25T01:52:58.543Z,1.90
2022-11-25T01:55:50.563Z,1.83
2022-11-25T01:58:38.781Z,1.77
2022-11-25T02:01:24.654Z,1.90
2022-11-25T02:04:13.153Z,1.90
2022-11-25T02:07:05.125Z,1.80
2022-11-25T02:09:51.242Z,1.70
2022-11-25T02:12:40.495Z,1.77
2022-11-25T02:15:28.453Z,1.73
2022-11-25T02:18:14.021Z,1.80
2022-11-25T02:20:59.267Z,1.50
2022-11-25T02:24:08.975Z,2.00
2022-11-25T02:26:54.567Z,1.53
2022-11-25T02:29:41.212Z,1.50
2022-11-25T02:32:26.764Z,1.30
2022-11-25T02:35:21.467Z,1.50
2022-11-25T02:38:24.029Z,1.50
2022-11-25T02:41:17.303Z,2.03
2022-11-25T02:44:06.521Z,1.53
2022-11-25T02:46:52.439Z,1.57
2022-11-25T02:49:37.778Z,1.80
2022-11-25T02:52:24.066Z,1.50
2022-11-25T02:55:09.599Z,1.50
2022-11-25T02:57:55.109Z,1.47
2022-11-25T03:00:42.601Z,1.63
2022-11-25T03:03:28.287Z,1.60
2022-11-25T03:06:13.695Z,1.50
2022-11-25T03:08:59.156Z,1.50
2022-11-25T03:12:03.959Z,1.50
2022-11-25T03:17:34.615Z,1.50
2022-11-25T03:20:20.398Z,1.50
2022-11-25T03:23:06.683Z,1.40
2022-11-25T03:25:52.320Z,1.67
2022-11-25T03:28:38.193Z,1.30
2022-11-25T03:31:23.575Z,1.40
2022-11-25T03:34:09.350Z,1.30
2022-11-25T03:36:55.242Z,1.30
2022-11-25T03:39:43.413Z,1.33
2022-11-25T03:42:29.743Z,1.70
2022-11-25T03:45:15.771Z,1.37
2022-11-25T03:48:03.434Z,1.23
2022-11-25T03:50:49.482Z,1.30
2022-11-25T03:53:35.171Z,1.20
2022-11-25T03:56:23.243Z,1.20
2022-11-25T03:59:09.099Z,1.43
2022-11-25T04:01:54.887Z,1.37
2022-11-25T04:04:41.493Z,1.30
2022-11-25T04:07:27.276Z,1.40
2022-11-25T04:10:14.024Z,1.50
2022-11-25T04:13:01.208Z,1.50
2022-11-25T04:15:57.034Z,0.97
2022-11-25T04:18:42.553Z,1.30
2022-11-25T04:21:28.070Z,1.40
2022-11-25T04:24:15.983Z,1.27
2022-11-25T04:27:02.441Z,1.20
2022-11-25T04:29:47.915Z,1.30
2022-11-25T04:32:33.969Z,1.30
2022-11-25T04:35:19.439Z,1.20
2022-11-25T04:38:09.792Z,1.40
2022-11-25T04:40:56.505Z,1.10
2022-11-25T04:43:42.279Z,1.30
2022-11-25T04:46:38.210Z,1.20
2022-11-25T04:49:23.770Z,1.40
2022-11-25T04:52:08.948Z,1.20
2022-11-25T04:54:55.187Z,1.30
2022-11-25T04:57:41.412Z,1.30
2022-11-25T05:00:28.316Z,1.13
2022-11-25T05:03:13.880Z,1.40
2022-11-25T05:05:59.072Z,1.23
2022-11-25T05:08:44.982Z,1.30
2022-11-25T05:11:30.795Z,1.20
2022-11-25T05:14:15.996Z,1.10
2022-11-25T05:17:08.362Z,1.23
2022-11-25T05:19:54.549Z,1.23
2022-11-25T05:22:40.687Z,1.53
2022-11-25T05:25:30.672Z,1.67
2022-11-25T05:28:46.737Z,1.60
2022-11-25T05:31:33.400Z,1.70
2022-11-25T05:34:19.113Z,1.53
2022-11-25T05:37:05.452Z,1.60
2022-11-25T05:39:53.579Z,2.20
2022-11-25T05:43:01.229Z,1.83
2022-11-25T05:45:48.722Z,2.03
2022-11-25T05:48:34.107Z,1.97
2022-11-25T05:51:19.524Z,2.37
2022-11-25T05:54:05.044Z,1.80
2022-11-25T05:56:53.891Z,2.17
2022-11-25T05:59:59.027Z,1.80
2022-11-25T06:03:04.656Z,1.90
2022-11-25T06:05:50.411Z,2.40
2022-11-25T06:08:38.419Z,2.50
2022-11-25T06:11:25.602Z,2.50
2022-11-25T06:14:10.740Z,2.40
2022-11-25T06:16:57.072Z,2.30
2022-11-25T06:19:53.476Z,2.37
2022-11-25T06:22:38.864Z,2.50
2022-11-25T06:25:25.670Z,2.93
2022-11-25T06:28:13.185Z,2.10
2022-11-25T06:31:07.849Z,2.20
2022-11-25T06:33:58.995Z,2.27
2022-11-25T06:36:44.367Z,2.27
2022-11-25T06:39:29.625Z,2.43
2022-11-25T06:42:14.822Z,2.20
2022-11-25T06:45:00.246Z,2.17
2022-11-25T06:47:45.732Z,2.10
2022-11-25T06:50:31.427Z,2.20
2022-11-25T06:53:21.188Z,2.17
2022-11-25T06:56:13.806Z,2.33
2022-11-25T06:58:59.254Z,2.10
2022-11-25T07:01:44.660Z,2.10
2022-11-25T07:04:30.780Z,2.07
2022-11-25T07:07:16.094Z,2.10
2022-11-25T07:10:01.463Z,2.23
2022-11-25T07:12:46.688Z,2.20
2022-11-25T07:15:34.773Z,2.20
2022-11-25T07:18:20.372Z,2.30
2022-11-25T07:21:07.209Z,2.33
2022-11-25T07:23:52.994Z,1.90
2022-11-25T07:26:40.284Z,2.37
2022-11-25T07:32:33.470Z,1.90
2022-11-25T07:35:18.895Z,1.73
2022-11-25T07:38:04.315Z,1.57
2022-11-25T07:40:50.733Z,1.80
2022-11-25T07:43:36.580Z,2.10
2022-11-25T07:46:27.050Z,1.70
2022-11-25T07:49:15.468Z,2.10
2022-11-25T07:52:02.336Z,1.70
2022-11-25T07:54:47.828Z,1.67
2022-11-25T07:57:32.918Z,1.83
2022-11-25T08:00:18.699Z,1.80
2022-11-25T08:03:03.928Z,2.00
2022-11-25T08:05:49.082Z,2.00
2022-11-25T08:08:35.005Z,1.90
2022-11-25T08:11:23.580Z,2.00
2022-11-25T08:14:10.340Z,1.73
2022-11-25T08:16:55.849Z,1.60
2022-11-25T08:19:41.290Z,1.90
2022-11-25T08:22:26.790Z,1.53
2022-11-25T08:25:12.320Z,1.70
2022-11-25T08:28:01.184Z,1.80
2022-11-25T08:30:46.787Z,2.13
2022-11-25T08:33:32.785Z,1.67
2022-11-25T08:36:19.957Z,1.80
2022-11-25T08:39:28.864Z,1.87
2022-11-25T08:42:12.765Z,1.70
2022-11-25T08:44:57.987Z,1.87
2022-11-25T08:47:43.371Z,1.80
2022-11-25T08:50:28.655Z,1.70
2022-11-25T08:53:14.842Z,1.43
2022-11-25T08:56:00.286Z,1.90
2022-11-25T08:58:45.411Z,1.73
2022-11-25T09:01:31.436Z,1.67
2022-11-25T09:04:17.053Z,1.90
2022-11-25T09:07:04.905Z,2.00
2022-11-25T09:09:50.522Z,1.90
2022-11-25T09:12:36.067Z,2.07
2022-11-25T09:15:21.749Z,2.20
2022-11-25T09:18:08.841Z,1.87
2022-11-25T09:20:54.337Z,1.57
2022-11-25T09:23:39.951Z,2.23
2022-11-25T09:26:31.265Z,1.63
2022-11-25T09:29:16.691Z,2.20
2022-11-25T09:32:02.078Z,2.20
2022-11-25T09:34:47.472Z,2.27
2022-11-25T09:37:32.834Z,2.10
2022-11-25T09:40:47.189Z,1.73
2022-11-25T09:43:57.073Z,1.50
2022-11-25T09:46:52.687Z,2.10
2022-11-25T09:49:48.956Z,2.20
2022-11-25T09:52:45.989Z,2.10
2022-11-25T09:55:39.887Z,1.90
2022-11-25T09:58:34.383Z,1.70
2022-11-25T10:01:25.128Z,1.87
2022-11-25T10:04:17.572Z,2.50
2022-11-25T10:07:04.358Z,2.00
2022-11-25T10:09:50.482Z,2.20
2022-11-25T10:12:42.644Z,1.90
2022-11-25T10:15:34.316Z,1.80
2022-11-25T10:18:31.938Z,2.10
2022-11-25T10:21:17.429Z,1.80
2022-11-25T10:24:05.045Z,2.20
2022-11-25T10:27:07.734Z,1.90
2022-11-25T10:30:05.175Z,1.97
2022-11-25T10:33:05.753Z,2.10
2022-11-25T10:35:53.225Z,1.80
2022-11-25T10:38:56.682Z,1.87
2022-11-25T10:41:56.882Z,2.03
2022-11-25T10:44:42.356Z,2.10
2022-11-25T10:47:36.344Z,2.20
2022-11-25T10:50:25.083Z,1.90
2022-11-25T10:53:20.156Z,2.10
2022-11-25T10:56:12.675Z,1.80
2022-11-25T10:58:58.046Z,1.87
2022-11-25T11:01:43.447Z,1.83
2022-11-25T11:04:28.670Z,1.90
2022-11-25T11:07:14.287Z,2.20
2022-11-25T11:10:14.645Z,2.40
2022-11-25T11:13:18.125Z,1.83
2022-11-25T11:16:03.797Z,1.92
2022-11-25T11:18:51.083Z,1.90
2022-11-25T11:21:41.798Z,2.17
2022-11-25T11:24:38.056Z,2.10
2022-11-25T11:27:25.012Z,2.13
2022-11-25T11:30:15.846Z,1.93
2022-11-25T11:33:25.266Z,1.77
2022-11-25T11:36:18.884Z,1.77
2022-11-25T11:39:26.514Z,1.63
2022-11-25T11:42:40.225Z,1.70
2022-11-25T11:45:25.556Z,1.65
2022-11-25T11:48:29.886Z,2.10
2022-11-25T11:51:55.547Z,1.60
2022-11-25T11:54:46.416Z,1.93
2022-11-25T11:57:48.415Z,2.00
2022-11-25T12:00:46.032Z,1.40
2022-11-25T12:03:39.078Z,1.77
2022-11-25T12:06:28.721Z,2.17
2022-11-25T12:09:20.873Z,1.97
2022-11-25T12:12:13.876Z,2.00
2022-11-25T13:28:04.599Z,1.43
2022-11-25T13:30:52.712Z,1.80
2022-11-25T13:33:44.788Z,1.30
2022-11-25T13:36:51.905Z,1.43
2022-11-25T13:39:38.734Z,1.27
2022-11-25T13:42:26.624Z,2.00
2022-11-25T13:45:32.751Z,1.53
2022-11-25T13:48:29.459Z,1.47
2022-11-25T13:51:22.957Z,1.70
2022-11-25T13:54:18.196Z,1.67
2022-11-25T13:57:12.454Z,1.43
2022-11-25T13:59:58.117Z,1.57
2022-11-25T14:02:45.634Z,1.53
2022-11-25T14:05:56.221Z,1.60
2022-11-25T14:08:45.783Z,1.40
2022-11-25T14:11:56.808Z,1.63
2022-11-25T14:15:00.489Z,1.73
2022-11-25T14:18:01.544Z,1.45
2022-11-25T14:20:52.937Z,1.67
2022-11-25T14:24:21.231Z,1.77
2022-11-25T14:27:15.883Z,1.40
2022-11-25T14:30:08.293Z,1.30
2022-11-25T14:33:02.529Z,1.40
2022-11-25T14:35:52.200Z,1.43
2022-11-25T14:38:45.338Z,1.47
2022-11-25T14:41:37.191Z,1.52
2022-11-25T14:44:28.164Z,1.77
2022-11-25T14:47:13.893Z,1.70
2022-11-25T14:50:33.013Z,1.60
2022-11-25T14:53:11.977Z,1.60
2022-11-25T14:56:00.265Z,1.53
2022-11-25T14:58:48.584Z,1.50
2022-11-25T15:01:35.882Z,1.60
2022-11-25T15:04:24.066Z,1.60
2022-11-25T15:07:18.503Z,2.10
2022-11-25T15:10:04.473Z,1.80
2022-11-25T15:12:53.738Z,1.70
2022-11-25T15:15:39.276Z,1.60
2022-11-25T15:18:25.955Z,1.60
2022-11-25T15:21:14.942Z,1.53
2022-11-25T15:24:01.553Z,1.70
2022-11-25T15:26:51.685Z,1.70
2022-11-25T15:29:42.419Z,1.77
2022-11-25T15:32:31.903Z,1.40
2022-11-25T15:35:21.330Z,1.83
2022-11-25T15:38:43.494Z,1.40
2022-11-25T15:41:36.841Z,1.40
2022-11-25T15:44:24.785Z,1.30
2022-11-25T15:47:23.548Z,1.70
2022-11-25T15:50:22.926Z,1.60
2022-11-25T15:53:10.778Z,1.50
2022-11-25T15:56:01.122Z,1.70
2022-11-25T15:58:46.690Z,1.30
2022-11-25T16:01:31.977Z,1.27
2022-11-25T16:04:21.423Z,1.23
2022-11-25T16:07:23.640Z,1.60
2022-11-25T16:10:24.217Z,1.40
2022-11-25T16:13:22.948Z,1.80
2022-11-25T16:16:14.945Z,1.57
2022-11-25T16:19:09.933Z,1.67
2022-11-25T16:22:01.060Z,1.60
2022-11-25T16:24:55.945Z,1.50
2022-11-25T16:27:45.327Z,1.73
2022-11-25T16:30:30.669Z,2.00
2022-11-25T16:33:15.800Z,2.07
2022-11-25T16:36:03.205Z,1.90
2022-11-25T16:38:54.385Z,1.70
2022-11-25T16:41:42.093Z,2.00
2022-11-25T16:44:29.131Z,1.93
2022-11-25T16:47:15.392Z,2.00
2022-11-25T16:50:01.158Z,1.83
2022-11-25T16:52:46.505Z,1.93
2022-11-25T16:55:32.251Z,1.70
2022-11-25T16:58:25.419Z,1.90
2022-11-25T17:03:58.267Z,1.90
2022-11-25T17:06:50.581Z,2.00
2022-11-25T17:09:49.475Z,2.00
2022-11-25T17:12:36.128Z,1.90
2022-11-25T17:15:32.340Z,1.77
2022-11-25T17:18:20.069Z,1.60
2022-11-25T17:21:05.827Z,1.90
2022-11-25T17:23:55.129Z,1.70
2022-11-25T17:26:42.889Z,1.80
2022-11-25T17:29:35.715Z,1.70
2022-11-25T17:32:21.506Z,2.00
2022-11-25T17:35:17.704Z,1.80
2022-11-25T17:38:14.256Z,1.80
2022-11-25T17:40:59.744Z,1.80
2022-11-25T17:43:47.605Z,2.10
2022-11-25T17:46:33.839Z,1.40
2022-11-25T17:49:21.087Z,1.80
2022-11-25T17:52:06.543Z,4.03
2022-11-25T17:54:52.074Z,3.73
2022-11-25T17:57:37.775Z,3.03
2022-11-25T18:00:23.557Z,2.90
2022-11-25T18:03:13.256Z,3.20
2022-11-25T18:05:58.604Z,2.73
2022-11-25T18:08:43.988Z,3.10
2022-11-25T18:11:29.451Z,2.70
2022-11-25T18:14:22.138Z,2.93
2022-11-25T18:17:08.537Z,3.00
2022-11-25T18:19:55.805Z,3.13
2022-11-25T18:22:45.467Z,3.33
2022-11-25T18:25:33.228Z,3.40
2022-11-25T18:28:25.173Z,3.13
2022-11-25T18:31:11.554Z,3.23
2022-11-25T18:33:57.065Z,3.27
2022-11-25T18:36:43.190Z,2.80
2022-11-25T18:39:28.871Z,2.97
2022-11-25T18:42:28.218Z,2.60
2022-11-25T18:45:22.662Z,3.57
2022-11-25T18:48:28.460Z,2.90
2022-11-25T18:51:14.943Z,2.50
2022-11-25T18:54:00.408Z,3.20
2022-11-25T18:56:49.904Z,3.23
2022-11-25T18:59:37.802Z,2.87
2022-11-25T19:02:23.272Z,2.60
2022-11-25T19:05:21.520Z,2.87
2022-11-25T19:08:07.327Z,2.87
2022-11-25T19:10:53.432Z,2.70
2022-11-25T19:13:38.960Z,2.90
2022-11-25T19:16:25.280Z,2.80
2022-11-25T19:19:15.707Z,3.07
2022-11-25T19:22:01.595Z,2.60
2022-11-25T19:24:47.497Z,2.77
2022-11-25T19:27:38.124Z,2.60
2022-11-25T19:30:27.433Z,2.70
2022-11-25T19:33:26.593Z,2.60
2022-11-25T19:36:24.430Z,2.63
2022-11-25T19:39:16.820Z,2.80
2022-11-25T19:42:01.929Z,2.80
2022-11-25T19:44:47.497Z,2.60
2022-11-25T19:47:33.051Z,2.97
2022-11-25T19:50:28.885Z,2.60
2022-11-25T19:53:17.780Z,2.70
2022-11-25T19:56:04.848Z,2.67
2022-11-25T19:58:51.069Z,2.77
2022-11-25T20:01:38.794Z,2.40
2022-11-25T20:04:24.411Z,2.30
2022-11-25T20:07:15.006Z,2.40
2022-11-25T20:10:17.710Z,2.30
2022-11-25T20:13:02.928Z,2.67
2022-11-25T20:15:48.577Z,2.50
2022-11-25T20:18:34.549Z,2.70
2022-11-25T20:21:32.171Z,2.60
2022-11-25T20:24:20.533Z,2.53
2022-11-25T20:27:06.076Z,2.50
2022-11-25T20:29:51.500Z,2.70
2022-11-25T20:32:36.914Z,2.30
2022-11-25T20:35:23.194Z,2.30
2022-11-25T20:38:36.165Z,2.60
2022-11-25T20:41:27.680Z,2.38
2022-11-25T20:44:13.899Z,2.33
2022-11-25T20:46:59.415Z,2.27
2022-11-25T20:49:46.531Z,2.50
2022-11-25T20:52:33.377Z,2.60
2022-11-25T20:55:23.626Z,2.60
2022-11-25T20:58:28.027Z,2.40
2022-11-25T21:01:15.020Z,2.60
2022-11-25T21:04:00.195Z,2.43
2022-11-25T21:06:46.050Z,2.43
2022-11-25T21:09:34.601Z,2.37
2022-11-25T21:12:20.119Z,2.30
2022-11-25T21:15:16.935Z,2.20
2022-11-25T21:18:02.236Z,2.30
2022-11-25T21:20:49.393Z,2.37
2022-11-25T21:23:37.389Z,2.07
2022-11-25T21:26:25.328Z,2.00
2022-11-25T21:29:15.548Z,2.40
2022-11-25T21:32:01.287Z,2.50
2022-11-25T21:34:46.574Z,2.17
2022-11-25T21:37:37.804Z,2.60
2022-11-25T21:40:46.035Z,2.20
2022-11-25T21:43:39.859Z,2.20
2022-11-25T21:49:11.904Z,2.27
2022-11-25T21:51:57.140Z,2.40
2022-11-25T21:54:43.124Z,2.17
2022-11-25T21:57:29.139Z,2.13
2022-11-25T22:00:20.076Z,1.90
2022-11-25T22:03:14.630Z,2.10
2022-11-25T22:05:59.807Z,2.43
2022-11-25T22:08:45.243Z,2.20
2022-11-25T22:11:33.512Z,2.10
2022-11-25T22:14:18.645Z,2.20
2022-11-25T22:17:13.091Z,2.70
2022-11-25T22:19:58.810Z,2.03
2022-11-25T22:22:44.174Z,2.00
2022-11-25T22:25:32.435Z,2.03
2022-11-25T22:28:20.377Z,1.90
2022-11-25T22:31:08.440Z,2.30
2022-11-25T22:33:54.592Z,2.13
2022-11-25T22:36:40.976Z,1.90
2022-11-25T22:39:26.836Z,2.50
2022-11-25T22:42:30.972Z,1.93
2022-11-25T22:45:44.199Z,1.87
2022-11-25T22:48:34.775Z,1.90
2022-11-25T22:51:27.257Z,1.93
2022-11-25T22:54:12.812Z,2.00
2022-11-25T22:56:58.418Z,1.97
2022-11-25T22:59:44.028Z,1.80
2022-11-25T23:02:34.034Z,2.07
2022-11-25T23:05:32.180Z,2.00
2022-11-25T23:08:21.344Z,1.90
2022-11-25T23:11:06.944Z,2.20
2022-11-25T23:13:52.352Z,1.80
2022-11-25T23:16:39.561Z,1.93
2022-11-25T23:19:25.036Z,1.90
2022-11-25T23:22:13.744Z,1.70
2022-11-25T23:24:59.220Z,1.80
2022-11-25T23:27:45.496Z,2.07
2022-11-25T23:30:31.370Z,1.90
2022-11-25T23:33:38.653Z,1.87
2022-11-25T23:36:41.704Z,1.70
2022-11-25T23:39:27.349Z,1.90
2022-11-25T23:42:19.897Z,1.83
2022-11-25T23:45:08.995Z,2.05
2022-11-25T23:47:56.162Z,1.93
2022-11-25T23:50:42.100Z,1.73
2022-11-25T23:53:32.995Z,1.77
2022-11-25T23:56:19.330Z,1.70
2022-11-25T23:59:12.792Z,1.63
